createdAt,value
2022-12-04T00:01:14.329Z,43.40
2022-12-04T00:04:15.883Z,43.30
2022-12-04T00:07:17.150Z,42.90
2022-12-04T00:10:19.104Z,43.70
2022-12-04T00:13:20.651Z,43.40
2022-12-04T00:16:23.562Z,43.10
2022-12-04T00:19:25.054Z,43.40
2022-12-04T00:22:26.444Z,43.10
2022-12-04T00:25:30.160Z,42.70
2022-12-04T00:28:32.263Z,42.50
2022-12-04T00:31:33.907Z,42.80
2022-12-04T00:34:35.223Z,43.00
2022-12-04T00:37:36.624Z,42.80
2022-12-04T00:40:38.582Z,42.70
2022-12-04T00:43:40.357Z,42.80
2022-12-04T00:46:42.097Z,42.30
2022-12-04T00:49:43.594Z,42.50
2022-12-04T00:52:45.000Z,42.70
2022-12-04T00:55:47.206Z,42.50
2022-12-04T00:58:51.744Z,42.40
2022-12-04T01:01:53.154Z,42.50
2022-12-04T01:04:54.721Z,58.80
2022-12-04T01:07:56.014Z,42.40
2022-12-04T01:10:58.130Z,43.00
2022-12-04T01:14:00.103Z,42.70
2022-12-04T01:17:01.722Z,42.60
2022-12-04T01:20:04.323Z,42.40
2022-12-04T01:23:06.033Z,42.30
2022-12-04T01:26:08.338Z,42.30
2022-12-04T01:29:09.731Z,42.60
2022-12-04T01:32:11.257Z,42.40
2022-12-04T01:35:12.549Z,42.50
2022-12-04T01:38:13.959Z,42.50
2022-12-04T01:41:19.106Z,42.50
2022-12-04T01:44:23.069Z,42.40
2022-12-04T01:47:24.475Z,42.30
2022-12-04T01:50:25.994Z,42.80
2022-12-04T01:53:28.715Z,42.50
2022-12-04T01:56:33.355Z,42.40
2022-12-04T01:59:40.324Z,42.50
2022-12-04T02:02:44.475Z,42.30
2022-12-04T02:05:45.907Z,42.60
2022-12-04T02:08:47.483Z,42.40
2022-12-04T02:11:55.492Z,42.50
2022-12-04T02:15:05.082Z,43.10
2022-12-04T02:18:24.145Z,42.50
2022-12-04T02:21:31.004Z,42.70
2022-12-04T02:24:48.400Z,42.60
2022-12-04T02:28:02.570Z,42.40
2022-12-04T02:31:11.753Z,42.40
2022-12-04T02:34:20.193Z,42.40
2022-12-04T02:37:28.119Z,42.40
2022-12-04T02:40:36.387Z,42.10
2022-12-04T02:43:42.884Z,42.10
2022-12-04T02:46:47.296Z,41.90
2022-12-04T02:49:52.060Z,41.90
2022-12-04T02:52:59.349Z,41.90
2022-12-04T02:56:04.493Z,42.00
2022-12-04T02:59:09.473Z,42.30
2022-12-04T03:02:27.828Z,42.00
2022-12-04T03:05:38.261Z,42.10
2022-12-04T03:08:45.084Z,41.90
2022-12-04T03:11:51.061Z,42.10
2022-12-04T03:14:59.721Z,42.00
2022-12-04T03:18:04.505Z,42.10
2022-12-04T03:21:09.913Z,42.20
2022-12-04T03:24:16.642Z,42.00
2022-12-04T03:27:23.312Z,41.80
2022-12-04T03:30:25.398Z,42.00
2022-12-04T03:33:31.696Z,42.20
2022-12-04T03:36:37.020Z,42.10
2022-12-04T03:39:46.438Z,42.10
2022-12-04T03:42:56.116Z,42.10
2022-12-04T03:46:02.814Z,42.30
2022-12-04T03:49:12.550Z,42.00
2022-12-04T03:52:20.416Z,42.10
2022-12-04T03:55:28.113Z,41.90
2022-12-04T03:58:33.588Z,42.10
2022-12-04T04:01:39.434Z,42.10
2022-12-04T04:04:44.330Z,42.20
2022-12-04T04:07:49.510Z,42.20
2022-12-04T04:10:52.971Z,42.10
2022-12-04T04:14:14.253Z,42.40
2022-12-04T04:17:38.476Z,42.30
2022-12-04T04:20:54.341Z,42.10
2022-12-04T04:24:10.629Z,42.40
2022-12-04T04:27:12.871Z,42.40
2022-12-04T04:30:14.372Z,42.60
2022-12-04T04:33:16.662Z,42.50
2022-12-04T04:36:28.523Z,42.50
2022-12-04T04:39:34.008Z,42.30
2022-12-04T04:42:42.247Z,42.30
2022-12-04T04:45:47.623Z,42.30
2022-12-04T04:48:53.999Z,42.10
2022-12-04T04:51:56.811Z,42.50
2022-12-04T04:55:00.067Z,42.40
2022-12-04T04:58:10.780Z,42.30
2022-12-04T05:01:14.869Z,42.40
2022-12-04T05:04:16.892Z,42.40
2022-12-04T05:07:18.264Z,43.30
2022-12-04T05:10:19.651Z,42.60
2022-12-04T05:13:21.495Z,42.50
2022-12-04T05:16:23.387Z,41.70
2022-12-04T05:19:40.071Z,42.60
2022-12-04T05:22:41.541Z,42.60
2022-12-04T05:25:43.205Z,42.60
2022-12-04T05:28:44.556Z,42.80
2022-12-04T05:31:46.018Z,42.80
2022-12-04T05:34:48.377Z,42.70
2022-12-04T05:37:49.782Z,42.70
2022-12-04T05:40:51.242Z,42.70
2022-12-04T05:43:52.628Z,42.70
2022-12-04T05:46:54.193Z,42.70
2022-12-04T05:49:56.323Z,42.50
2022-12-04T05:52:58.002Z,43.00
2022-12-04T05:56:01.524Z,42.90
2022-12-04T05:59:03.122Z,42.70
2022-12-04T06:02:04.452Z,42.90
2022-12-04T06:05:06.863Z,43.00
2022-12-04T06:08:08.398Z,43.00
2022-12-04T06:11:11.394Z,42.70
2022-12-04T06:14:15.247Z,42.80
2022-12-04T06:17:16.766Z,42.80
2022-12-04T06:20:19.075Z,42.90
2022-12-04T06:23:20.590Z,42.80
2022-12-04T06:26:23.292Z,42.90
2022-12-04T06:29:25.300Z,42.70
2022-12-04T06:32:26.690Z,43.00
2022-12-04T06:35:28.655Z,43.10
2022-12-04T06:38:30.631Z,43.10
2022-12-04T06:41:32.264Z,42.90
2022-12-04T06:44:33.533Z,43.10
2022-12-04T06:47:35.422Z,43.40
2022-12-04T06:50:37.391Z,42.80
2022-12-04T06:53:39.455Z,43.10
2022-12-04T06:56:40.819Z,42.90
2022-12-04T06:59:42.323Z,43.10
2022-12-04T07:02:43.746Z,43.00
2022-12-04T07:05:45.890Z,43.30
2022-12-04T07:08:49.775Z,43.10
2022-12-04T07:11:52.231Z,42.90
2022-12-04T07:14:53.688Z,43.00
2022-12-04T07:17:55.376Z,42.50
2022-12-04T07:20:57.244Z,42.60
2022-12-04T07:23:59.568Z,42.90
2022-12-04T07:27:00.944Z,42.90
2022-12-04T07:30:02.760Z,42.10
2022-12-04T07:33:04.513Z,41.60
2022-12-04T07:36:09.260Z,41.50
2022-12-04T07:39:10.672Z,41.30
2022-12-04T07:42:12.058Z,41.20
2022-12-04T07:45:14.716Z,41.10
2022-12-04T07:48:16.475Z,40.60
2022-12-04T07:51:19.872Z,40.80
2022-12-04T07:54:21.343Z,40.80
2022-12-04T07:57:22.738Z,40.90
2022-12-04T08:00:24.286Z,40.50
2022-12-04T08:03:26.277Z,40.70
2022-12-04T08:06:29.036Z,40.90
2022-12-04T08:09:30.483Z,41.10
2022-12-04T08:12:32.071Z,40.70
2022-12-04T08:15:33.528Z,40.70
2022-12-04T08:18:35.420Z,40.90
2022-12-04T08:21:37.403Z,40.80
2022-12-04T08:24:38.881Z,40.60
2022-12-04T08:27:47.550Z,40.30
2022-12-04T08:30:49.329Z,40.50
2022-12-04T08:33:52.309Z,40.60
2022-12-04T08:36:54.307Z,40.80
2022-12-04T08:39:57.832Z,40.50
2022-12-04T08:42:59.491Z,40.20
2022-12-04T08:46:02.433Z,40.20
2022-12-04T08:49:04.341Z,40.40
2022-12-04T08:52:06.293Z,39.80
2022-12-04T08:55:08.982Z,39.70
2022-12-04T08:58:10.850Z,39.90
2022-12-04T09:01:13.864Z,40.00
2022-12-04T09:04:15.365Z,39.90
2022-12-04T09:07:17.359Z,39.80
2022-12-04T09:10:18.718Z,39.90
2022-12-04T09:13:20.150Z,40.00
2022-12-04T09:16:23.178Z,39.90
2022-12-04T09:19:24.762Z,40.00
2022-12-04T09:22:32.745Z,39.90
2022-12-04T09:25:47.549Z,40.00
2022-12-04T09:28:49.942Z,40.00
2022-12-04T09:31:51.545Z,39.80
2022-12-04T09:34:53.008Z,39.80
2022-12-04T09:37:55.013Z,40.30
2022-12-04T09:41:03.081Z,40.50
2022-12-04T09:44:09.272Z,39.90
2022-12-04T09:47:19.209Z,39.80
2022-12-04T09:50:23.584Z,39.70
2022-12-04T09:53:29.546Z,39.60
2022-12-04T09:56:31.911Z,39.60
2022-12-04T09:59:33.376Z,39.50
2022-12-04T10:02:38.475Z,39.80
2022-12-04T10:05:48.058Z,39.40
2022-12-04T10:08:58.331Z,39.30
2022-12-04T10:12:07.941Z,39.50
2022-12-04T10:15:25.729Z,39.40
2022-12-04T10:18:41.934Z,39.40
2022-12-04T10:21:56.172Z,39.40
2022-12-04T10:25:04.104Z,39.40
2022-12-04T10:28:15.402Z,39.40
2022-12-04T10:31:16.887Z,39.30
2022-12-04T10:34:22.189Z,39.50
2022-12-04T10:37:24.964Z,39.40
2022-12-04T10:40:32.604Z,39.40
2022-12-04T10:43:40.574Z,39.40
2022-12-04T10:46:45.979Z,39.30
2022-12-04T10:49:48.245Z,39.20
2022-12-04T10:52:49.905Z,39.40
2022-12-04T10:55:51.874Z,39.60
2022-12-04T10:58:56.302Z,39.30
2022-12-04T11:02:06.617Z,39.00
2022-12-04T11:05:25.072Z,39.30
2022-12-04T11:08:34.685Z,39.10
2022-12-04T11:11:38.138Z,39.00
2022-12-04T11:14:44.058Z,38.90
2022-12-04T11:17:48.181Z,38.90
2022-12-04T11:20:52.227Z,38.90
2022-12-04T11:23:53.890Z,38.60
2022-12-04T11:26:57.242Z,38.60
2022-12-04T11:30:01.223Z,38.70
2022-12-04T11:33:06.829Z,38.40
2022-12-04T11:36:21.348Z,38.60
2022-12-04T11:39:30.353Z,38.60
2022-12-04T11:42:32.379Z,38.40
2022-12-04T11:45:33.926Z,38.80
2022-12-04T11:48:41.455Z,38.60
2022-12-04T11:51:54.798Z,39.00
2022-12-04T11:55:01.598Z,38.70
2022-12-04T11:58:27.042Z,38.70
2022-12-04T12:01:40.984Z,38.70
2022-12-04T12:04:55.577Z,38.80
2022-12-04T12:08:03.775Z,38.70
2022-12-04T12:11:13.012Z,39.30
2022-12-04T12:14:24.318Z,39.30
2022-12-04T12:17:33.499Z,39.10
2022-12-04T12:20:40.696Z,40.00
2022-12-04T12:23:55.200Z,39.20
2022-12-04T12:27:12.831Z,39.40
2022-12-04T12:30:17.318Z,39.30
2022-12-04T12:33:22.602Z,39.20
2022-12-04T12:36:25.785Z,39.20
2022-12-04T12:39:37.720Z,39.30
2022-12-04T12:42:52.502Z,39.50
2022-12-04T12:46:05.154Z,39.30
2022-12-04T12:49:13.208Z,39.40
2022-12-04T12:52:24.579Z,39.40
2022-12-04T12:55:29.544Z,39.60
2022-12-04T12:58:37.540Z,39.60
2022-12-04T13:01:46.709Z,39.60
2022-12-04T13:04:52.217Z,56.30
2022-12-04T13:08:00.544Z,39.40
2022-12-04T13:11:05.770Z,39.60
2022-12-04T13:14:11.713Z,39.30
2022-12-04T13:17:17.960Z,39.40
2022-12-04T13:20:24.477Z,39.50
2022-12-04T13:23:41.015Z,39.50
2022-12-04T13:26:49.962Z,40.30
2022-12-04T13:30:04.098Z,39.60
2022-12-04T13:33:29.129Z,39.90
2022-12-04T13:36:54.535Z,40.00
2022-12-04T13:40:27.180Z,40.00
2022-12-04T13:43:33.199Z,40.00
2022-12-04T13:46:38.369Z,40.00
2022-12-04T13:49:45.048Z,40.00
2022-12-04T13:52:48.498Z,39.90
2022-12-04T13:55:56.247Z,40.10
2022-12-04T13:59:02.109Z,40.20
2022-12-04T14:02:21.161Z,40.20
2022-12-04T14:05:30.603Z,40.50
2022-12-04T14:08:38.631Z,40.40
2022-12-04T14:11:44.520Z,40.30
2022-12-04T14:14:54.684Z,40.30
2022-12-04T14:18:00.676Z,40.40
2022-12-04T14:21:05.050Z,40.40
2022-12-04T14:24:15.791Z,40.50
2022-12-04T14:27:34.527Z,40.60
2022-12-04T14:30:38.730Z,40.40
2022-12-04T14:33:46.765Z,40.70
2022-12-04T14:36:51.772Z,40.70
2022-12-04T14:39:55.070Z,40.70
2022-12-04T14:42:56.522Z,40.70
2022-12-04T14:46:03.879Z,40.90
2022-12-04T14:49:19.750Z,41.00
2022-12-04T14:52:27.599Z,40.90
2022-12-04T14:55:37.374Z,40.80
2022-12-04T14:58:39.245Z,40.90
2022-12-04T15:01:40.784Z,40.90
2022-12-04T15:04:45.436Z,40.70
2022-12-04T15:07:50.230Z,41.40
2022-12-04T15:11:04.591Z,40.50
2022-12-04T15:14:12.615Z,41.10
2022-12-04T15:17:15.754Z,40.90
2022-12-04T15:20:19.195Z,41.10
2022-12-04T15:23:27.742Z,41.00
2022-12-04T15:26:29.427Z,41.00
2022-12-04T15:29:37.228Z,41.00
2022-12-04T15:32:38.706Z,40.80
2022-12-04T15:35:45.534Z,41.20
2022-12-04T15:38:49.474Z,41.20
2022-12-04T15:41:51.135Z,41.20
2022-12-04T15:45:00.031Z,41.30
2022-12-04T15:48:01.827Z,41.30
2022-12-04T15:51:05.597Z,41.40
2022-12-04T15:54:13.462Z,41.40
2022-12-04T15:57:21.022Z,41.40
2022-12-04T16:00:26.620Z,41.40
2022-12-04T16:03:30.914Z,41.40
2022-12-04T16:06:34.194Z,41.50
2022-12-04T16:09:36.227Z,41.50
2022-12-04T16:12:37.849Z,41.70
2022-12-04T16:15:40.674Z,41.80
2022-12-04T16:18:42.723Z,42.10
2022-12-04T16:21:45.784Z,41.90
2022-12-04T16:24:48.908Z,41.70
2022-12-04T16:27:50.296Z,41.80
2022-12-04T16:30:52.556Z,41.90
2022-12-04T16:33:54.022Z,41.70
2022-12-04T16:36:55.589Z,41.80
2022-12-04T16:39:57.466Z,42.10
2022-12-04T16:42:58.777Z,42.10
2022-12-04T16:46:01.015Z,42.40
2022-12-04T16:49:07.320Z,41.70
2022-12-04T16:52:10.022Z,42.20
2022-12-04T16:55:17.968Z,42.10
2022-12-04T16:58:20.465Z,42.00
2022-12-04T17:01:24.828Z,42.10
2022-12-04T17:04:26.255Z,42.30
2022-12-04T17:07:27.816Z,42.20
2022-12-04T17:10:29.752Z,42.40
2022-12-04T17:13:31.148Z,42.70
2022-12-04T17:16:32.939Z,43.00
2022-12-04T17:19:34.425Z,42.40
2022-12-04T17:22:35.966Z,42.50
2022-12-04T17:25:37.853Z,42.50
2022-12-04T17:28:39.486Z,43.10
2022-12-04T17:31:40.975Z,42.90
2022-12-04T17:34:42.312Z,43.00
2022-12-04T17:37:44.089Z,42.60
2022-12-04T17:40:56.226Z,42.70
2022-12-04T17:43:59.479Z,42.80
2022-12-04T17:47:00.989Z,43.00
2022-12-04T17:50:03.204Z,43.00
2022-12-04T17:53:04.559Z,43.00
2022-12-04T17:56:09.375Z,43.20
2022-12-04T17:59:10.796Z,43.10
2022-12-04T18:02:12.613Z,43.30
2022-12-04T18:05:14.032Z,43.40
2022-12-04T18:08:15.515Z,43.40
2022-12-04T18:11:19.698Z,43.40
2022-12-04T18:14:21.695Z,43.20
2022-12-04T18:17:23.075Z,43.10
2022-12-04T18:20:24.593Z,43.50
2022-12-04T18:23:25.883Z,43.40
2022-12-04T18:26:32.605Z,43.80
2022-12-04T18:29:34.262Z,43.50
2022-12-04T18:32:35.597Z,43.10
2022-12-04T18:35:36.988Z,43.60
2022-12-04T18:38:38.384Z,43.50
2022-12-04T18:41:40.521Z,43.90
2022-12-04T18:44:42.058Z,43.50
2022-12-04T18:47:43.304Z,43.80
2022-12-04T18:50:44.793Z,44.00
2022-12-04T18:53:46.419Z,43.80
2022-12-04T18:56:48.887Z,44.10
2022-12-04T18:59:50.303Z,43.80
2022-12-04T19:02:51.765Z,44.00
2022-12-04T19:05:53.236Z,44.10
2022-12-04T19:08:54.800Z,43.70
2022-12-04T19:11:56.794Z,43.80
2022-12-04T19:14:58.351Z,44.10
2022-12-04T19:17:59.745Z,44.00
2022-12-04T19:21:04.540Z,44.00
2022-12-04T19:24:06.598Z,44.10
2022-12-04T19:27:10.844Z,44.00
2022-12-04T19:30:12.840Z,44.20
2022-12-04T19:33:14.222Z,44.00
2022-12-04T19:36:15.639Z,44.10
2022-12-04T19:39:17.114Z,44.00
2022-12-04T19:42:19.135Z,44.20
2022-12-04T19:45:20.802Z,44.10
2022-12-04T19:48:22.062Z,44.40
2022-12-04T19:51:24.869Z,44.70
2022-12-04T19:54:27.358Z,44.30
2022-12-04T19:57:29.345Z,44.10
2022-12-04T20:00:30.743Z,44.40
2022-12-04T20:03:32.966Z,44.50
2022-12-04T20:06:36.841Z,44.30
2022-12-04T20:09:38.346Z,44.30
2022-12-04T20:12:40.481Z,44.10
2022-12-04T20:15:42.097Z,44.10
2022-12-04T20:18:43.744Z,44.60
2022-12-04T20:21:45.685Z,44.20
2022-12-04T20:24:47.111Z,44.30
2022-12-04T20:27:49.200Z,44.60
2022-12-04T20:30:51.545Z,44.60
2022-12-04T20:33:54.925Z,45.20
2022-12-04T20:36:57.157Z,44.40
2022-12-04T20:40:01.415Z,44.60
2022-12-04T20:43:03.405Z,44.80
2022-12-04T20:46:13.662Z,45.00
2022-12-04T20:49:21.084Z,45.00
2022-12-04T20:52:23.395Z,44.50
2022-12-04T20:55:24.721Z,44.60
2022-12-04T20:58:27.248Z,45.30
2022-12-04T21:01:29.432Z,45.00
2022-12-04T21:04:30.904Z,44.90
2022-12-04T21:07:32.341Z,45.70
2022-12-04T21:10:34.068Z,45.00
2022-12-04T21:13:51.928Z,44.70
2022-12-04T21:16:53.376Z,45.20
2022-12-04T21:19:55.059Z,45.30
2022-12-04T21:22:56.947Z,45.30
2022-12-04T21:25:58.414Z,45.40
2022-12-04T21:29:01.558Z,44.80
2022-12-04T21:32:04.709Z,44.90
2022-12-04T21:35:06.661Z,45.30
2022-12-04T21:38:08.042Z,45.40
2022-12-04T21:41:10.300Z,45.30
2022-12-04T21:44:15.135Z,45.50
2022-12-04T21:47:16.654Z,45.20
2022-12-04T21:50:18.090Z,45.60
2022-12-04T21:53:20.012Z,45.50
2022-12-04T21:56:22.050Z,45.30
2022-12-04T21:59:24.914Z,45.20
2022-12-04T22:02:26.402Z,45.40
2022-12-04T22:05:31.095Z,46.00
2022-12-04T22:08:35.023Z,45.70
2022-12-04T22:11:36.862Z,45.50
2022-12-04T22:14:38.869Z,45.00
2022-12-04T22:17:40.883Z,45.80
2022-12-04T22:20:42.301Z,45.30
2022-12-04T22:23:43.921Z,45.50
2022-12-04T22:26:45.166Z,45.80
2022-12-04T22:30:02.104Z,46.00
2022-12-04T22:33:04.518Z,45.60
2022-12-04T22:36:08.066Z,45.80
2022-12-04T22:39:10.751Z,45.50
2022-12-04T22:42:12.703Z,45.90
2022-12-04T22:45:14.805Z,45.70
2022-12-04T22:48:16.292Z,45.50
2022-12-04T22:51:19.476Z,45.70
2022-12-04T22:54:21.140Z,45.50
2022-12-04T22:57:22.527Z,45.80
2022-12-04T23:00:24.564Z,45.90
2022-12-04T23:03:26.099Z,45.60
2022-12-04T23:06:28.098Z,45.50
2022-12-04T23:09:29.597Z,45.70
2022-12-04T23:12:30.948Z,45.90
2022-12-04T23:15:37.045Z,45.70
2022-12-04T23:18:38.495Z,45.70
2022-12-04T23:21:40.344Z,45.80
2022-12-04T23:24:41.932Z,45.70
2022-12-04T23:27:43.206Z,45.90
2022-12-04T23:30:46.145Z,46.30
2022-12-04T23:33:47.568Z,45.50
2022-12-04T23:36:48.943Z,45.80
2022-12-04T23:39:50.319Z,45.90
2022-12-04T23:42:51.721Z,45.80
2022-12-04T23:45:53.827Z,46.00
2022-12-04T23:48:55.403Z,45.50
2022-12-04T23:51:56.731Z,46.00
2022-12-04T23:54:58.359Z,46.30
2022-12-04T23:57:59.605Z,45.90
